New Iberia, LA (70562)

7:23 AM CDT on September 02, 2015 (GMT -0500)
New Iberia City Park Neighborhood | | Change Station
CLOSE
Current Station
Personal Weather Station
Location: New Iberia, LA
Elevation: 43 ft
Nearby Weather Stations

Elev 43 ft 30.00 °N, 91.80 °W | Updated 11 seconds ago

Mostly Cloudy
Mostly Cloudy
75.0 °F
Feels Like 73 °F
N
0.0
Wind Variable Wind from SE
Gusts 0.0 mph

Today
High -- | Low -- °F
--% Chance of Precip.
Yesterday
High -- | Low -- °F
Precip. -- in
6:44 AM 7:28 PM
Waning Gibbous, 80% visible
Pressure 30.06 in
Visibility 8.0 miles
Clouds Mostly Cloudy 8000 ft
Overcast 9500 ft
Heat Index 73 °F
Dew Point 74 °F
Humidity 96%
Rainfall 0.00 in
Snow Depth Not available.
UV 0.0 out of 12
Pollen 8.00 out of 12
Air Quality Not available.
Flu Activity Not available.
METAR KARA 021153Z 00000KT 8SM BKN080 OVC095 24/23 A3006 RMK AO2 SLP179 60000 T02440228 10261 20244 53008
Pressure 30.06 in
Visibility 8.0 miles
Clouds Mostly Cloudy 8000 ft
Overcast 9500 ft
Heat Index 73 °F
Dew Point 74 °F
Humidity 96%
Rainfall 0.00 in
Snow Depth Not available.
UV 0.0 out of 12
Pollen 8.00 out of 12
Air Quality Not available.
Flu Activity Not available.
METAR KARA 021153Z 00000KT 8SM BKN080 OVC095 24/23 A3006 RMK AO2 SLP179 60000 T02440228 10261 20244 53008

10-Day Weather Forecast

×

Almanac

Astronomy

Sep. 02, 2015 Rise Set
Actual Time
Civil Twilight
Nautical Twilight
Astronomical Twilight
Moon
Length of Visible Light
Length of Day
Tomorrow will be .
, % of the Moon is Illuminated

Today's Extremes

State Highs State Lows

Community

WunderPhotos

Upload Photos

1,851,738 photos uploaded!

WunderBlogs® & News

Nearby

Air Quality

  Air Quality AQ Index Pollutant
Not available.

Snow Depth

Station Depth Elevation

Earthquake Activity

City Distance Mag. Time & Date
Minimum magnitude displayed is 2.5.

Coastal Water Temperatures

Place Temperature

Stations

Nearby Weather Stations

Station Location Temp. Windchill Dew Point Humidity Wind Precip. Elev Updated Type